Strona główna
METAR-TAF:

METAR-TAF

Lotnisko :

Platforma wiertnicza

L9-ff-1, Holandia

Szerokość geograficzna: 53-36-52N, Długość geograficzna: 4-57-37E, wysokość: 30 m

Aktualna obserwacja pogody

Raport powstał 35 minut temu, godzina 11:25 UTC
Wiatr 30 kt od południowo-południowy zachód
Temperatura 9°C
Wilgotność 93%
Ciśnienie 1002 hPa
Widzialność 10 km lub więcej
Mało chmury na wysokości 700 ft
Rozproszone chmury na wysokości 800 ft
Przerywane chmury na wysokości 1200 ft

METAR: EHMG 161125Z AUTO 21030KT 9999 FEW007 SCT008 BKN012 09/08 Q1002

czas: 13:00 (12:00 UTC)


TAF: brakujący

Obserwacja i prognoza pogody dla ponad 4000 lotnisk (raport METAR i TAF).

Dostępne stacje oznaczono żółtymi i czerwonymi punktami na mapie.

Najedź kursorem aby zobaczyć nazwę stacji.

Kliknij aby zobaczyć obserwacje i prognozy pogody.

Aby zmienić mapę: kliknij na zielony przycisk z czarnym krzyżykiem, aby powiększyć; na zielony przycisk z myślnikiem, aby pomniejszyć; na zielone strzałki, aby przejść do map sąsiednich.


METAR-TAF: